Time;durP1;ratioP1;P1;durP2;ratioP2;P2;SDS_P1;SDS_P2;PMS_P1;PMS_P2;Temp;Humidity;BMP_temperature;BMP_pressure;BME280_temperature;BME280_humidity;BME280_pressure;Samples;Min_cycle;Max_cycle;Signal;HPM_P1;HPM_P2
2022/04/03 00:01:25;;;;;;;23.83;17.27;;;;;;;;;;4946858;28;20079;-69
2022/04/03 00:03:51;;;;;;;21.70;16.92;;;;;;;;;;4952059;28;20071;-69
2022/04/03 00:06:17;;;;;;;25.23;17.17;;;;;;;;;;4949321;29;20522;-69
2022/04/03 00:08:43;;;;;;;20.95;15.27;;;;;;;;;;4948723;29;20039;-69
2022/04/03 00:11:09;;;;;;;23.70;17.63;;;;;;;;;;4954165;28;20410;-70
2022/04/03 00:13:36;;;;;;;20.83;15.88;;;;;;;;;;4951970;28;20134;-68
2022/04/03 00:16:06;;;;;;;25.65;18.92;;;;;;;;;;4950134;29;20043;-69
2022/04/03 00:18:32;;;;;;;20.40;15.88;;;;;;;;;;4946562;28;20047;-69
2022/04/03 00:20:59;;;;;;;23.02;17.63;;;;;;;;;;4951661;28;20050;-69
2022/04/03 00:23:25;;;;;;;24.65;17.05;;;;;;;;;;4932126;29;20636;-69
2022/04/03 00:25:51;;;;;;;22.42;18.45;;;;;;;;;;4952515;28;20097;-70
2022/04/03 00:28:18;;;;;;;25.67;15.82;;;;;;;;;;4963452;28;20039;-69
2022/04/03 00:30:44;;;;;;;26.80;17.80;;;;;;;;;;4959044;28;20043;-69
2022/04/03 00:33:11;;;;;;;22.05;16.42;;;;;;;;;;4955699;29;20039;-70
2022/04/03 00:35:36;;;;;;;18.30;16.05;;;;;;;;;;4949485;29;20478;-69
2022/04/03 00:38:03;;;;;;;19.63;16.88;;;;;;;;;;4950260;28;20050;-71
2022/04/03 00:40:29;;;;;;;19.08;15.52;;;;;;;;;;4953746;28;20035;-69
2022/04/03 00:42:55;;;;;;;24.60;15.93;;;;;;;;;;4949053;29;20050;-69
2022/04/03 00:45:22;;;;;;;23.70;19.00;;;;;;;;;;4945954;28;20093;-69
2022/04/03 00:47:50;;;;;;;23.48;18.67;;;;;;;;;;4949612;28;20047;-69
2022/04/03 00:50:17;;;;;;;23.15;18.00;;;;;;;;;;4949120;29;20122;-69
2022/04/03 00:52:44;;;;;;;21.73;15.75;;;;;;;;;;4947380;28;20567;-69
2022/04/03 00:55:10;;;;;;;27.92;19.15;;;;;;;;;;4950629;28;20058;-70
2022/04/03 00:57:36;;;;;;;26.20;19.40;;;;;;;;;;4947785;28;20039;-69
2022/04/03 01:00:03;;;;;;;26.55;17.65;;;;;;;;;;4948806;29;20039;-69
2022/04/03 01:02:30;;;;;;;23.23;16.83;;;;;;;;;;4948126;28;20522;-70
2022/04/03 01:04:56;;;;;;;25.23;19.13;;;;;;;;;;4952040;28;20062;-69
2022/04/03 01:07:22;;;;;;;22.00;16.58;;;;;;;;;;4944756;28;20035;-69
2022/04/03 01:09:48;;;;;;;29.10;20.10;;;;;;;;;;4941378;28;20058;-69
2022/04/03 01:12:14;;;;;;;25.38;17.10;;;;;;;;;;4951196;28;20050;-69
2022/04/03 01:14:42;;;;;;;28.33;19.50;;;;;;;;;;4949440;28;20119;-69
2022/04/03 01:17:10;;;;;;;27.70;19.33;;;;;;;;;;4948843;28;20054;-69
2022/04/03 01:19:41;;;;;;;26.90;19.67;;;;;;;;;;4952677;28;20062;-70
2022/04/03 01:22:07;;;;;;;25.38;20.42;;;;;;;;;;4945533;29;20299;-69
2022/04/03 01:24:33;;;;;;;30.77;22.90;;;;;;;;;;4947143;28;20039;-69
2022/04/03 01:27:00;;;;;;;26.85;20.13;;;;;;;;;;4950968;28;20114;-69
2022/04/03 01:29:26;;;;;;;31.77;19.00;;;;;;;;;;4949928;28;20066;-69
2022/04/03 01:31:53;;;;;;;29.15;20.20;;;;;;;;;;4948467;28;20035;-69
2022/04/03 01:34:20;;;;;;;28.23;20.55;;;;;;;;;;4954479;28;20049;-69
2022/04/03 01:36:46;;;;;;;28.58;20.52;;;;;;;;;;4953657;28;20130;-69
2022/04/03 01:39:13;;;;;;;30.05;18.38;;;;;;;;;;4958185;28;20110;-69
2022/04/03 01:41:40;;;;;;;27.42;19.13;;;;;;;;;;4949206;29;20034;-68
2022/04/03 01:44:07;;;;;;;32.85;21.05;;;;;;;;;;4948871;29;20110;-68
2022/04/03 01:46:34;;;;;;;23.48;18.17;;;;;;;;;;4950607;28;20903;-69
2022/04/03 01:48:59;;;;;;;34.72;21.77;;;;;;;;;;4956527;28;20542;-69
2022/04/03 01:51:25;;;;;;;35.67;24.55;;;;;;;;;;4917201;29;20051;-68
2022/04/03 01:53:51;;;;;;;29.88;19.63;;;;;;;;;;4948649;29;20550;-68
2022/04/03 01:56:16;;;;;;;27.52;18.75;;;;;;;;;;4947493;28;20067;-69
2022/04/03 01:58:42;;;;;;;26.80;19.23;;;;;;;;;;4958783;28;20039;-68
2022/04/03 02:01:08;;;;;;;28.58;19.95;;;;;;;;;;4948582;29;20118;-68
2022/04/03 02:03:33;;;;;;;31.95;22.27;;;;;;;;;;4947261;28;20046;-68
2022/04/03 02:05:59;;;;;;;31.05;21.77;;;;;;;;;;4980238;23;20051;-71
2022/04/03 02:08:25;;;;;;;28.25;20.13;;;;;;;;;;4967599;28;20105;-72
2022/04/03 02:10:52;;;;;;;25.08;18.55;;;;;;;;;;4968077;28;20058;-72
2022/04/03 02:13:18;;;;;;;27.58;20.35;;;;;;;;;;4967924;28;20608;-71
2022/04/03 02:15:43;;;;;;;33.28;22.38;;;;;;;;;;4952923;28;20066;-71
2022/04/03 02:18:09;;;;;;;39.90;23.10;;;;;;;;;;4976596;28;20066;-71
2022/04/03 02:20:36;;;;;;;36.15;21.70;;;;;;;;;;4968489;28;20034;-71
2022/04/03 02:23:05;;;;;;;33.83;22.15;;;;;;;;;;4955504;28;20046;-72
2022/04/03 02:25:31;;;;;;;34.63;23.10;;;;;;;;;;4955821;28;20042;-72
2022/04/03 02:27:59;;;;;;;34.47;23.35;;;;;;;;;;4950399;28;20061;-72
2022/04/03 02:30:25;;;;;;;34.55;21.58;;;;;;;;;;4968759;28;20034;-72
2022/04/03 02:32:51;;;;;;;40.90;25.70;;;;;;;;;;4956112;28;20038;-71
2022/04/03 02:35:17;;;;;;;28.80;21.30;;;;;;;;;;4977597;28;20089;-73
2022/04/03 02:37:43;;;;;;;33.03;22.02;;;;;;;;;;4968492;28;20031;-72
2022/04/03 02:40:13;;;;;;;31.80;21.63;;;;;;;;;;4968171;28;20054;-71
2022/04/03 02:42:39;;;;;;;44.53;28.42;;;;;;;;;;4962517;28;20498;-71
2022/04/03 02:45:06;;;;;;;39.10;25.58;;;;;;;;;;4980765;28;20031;-71
2022/04/03 02:47:33;;;;;;;37.72;23.15;;;;;;;;;;4971507;28;20080;-70
2022/04/03 02:49:59;;;;;;;38.17;24.73;;;;;;;;;;4971913;28;20034;-71
2022/04/03 02:52:24;;;;;;;38.60;24.40;;;;;;;;;;4975128;28;20045;-71
2022/04/03 02:54:50;;;;;;;24.13;19.02;;;;;;;;;;4977477;28;20672;-70
2022/04/03 02:57:16;;;;;;;32.63;23.23;;;;;;;;;;4974961;28;20030;-71
2022/04/03 02:59:42;;;;;;;27.10;19.80;;;;;;;;;;4973637;28;20042;-71
2022/04/03 03:02:08;;;;;;;33.40;24.00;;;;;;;;;;4971228;28;20037;-73
2022/04/03 03:04:36;;;;;;;30.58;22.60;;;;;;;;;;4973956;28;20022;-71
2022/04/03 03:07:04;;;;;;;31.97;22.20;;;;;;;;;;4953543;28;20097;-71
2022/04/03 03:09:29;;;;;;;25.73;18.15;;;;;;;;;;4971480;28;20466;-71
2022/04/03 03:11:55;;;;;;;25.05;18.50;;;;;;;;;;4956492;28;20034;-71
2022/04/03 03:14:21;;;;;;;31.50;20.80;;;;;;;;;;4981753;28;20062;-71
2022/04/03 03:16:48;;;;;;;28.55;18.45;;;;;;;;;;4953350;28;20054;-71
2022/04/03 03:19:15;;;;;;;32.08;20.88;;;;;;;;;;4971353;28;20445;-71
2022/04/03 03:21:43;;;;;;;35.63;22.80;;;;;;;;;;4962668;28;20042;-70
2022/04/03 03:24:09;;;;;;;28.77;19.85;;;;;;;;;;4946209;28;20054;-70
2022/04/03 03:26:36;;;;;;;31.90;23.98;;;;;;;;;;4952510;28;20426;-71
2022/04/03 03:29:02;;;;;;;31.50;21.35;;;;;;;;;;4959793;28;20097;-71
2022/04/03 03:31:28;;;;;;;29.95;20.45;;;;;;;;;;4949397;28;20053;-71
2022/04/03 03:33:54;;;;;;;34.58;20.92;;;;;;;;;;4953641;28;20070;-70
2022/04/03 03:36:20;;;;;;;30.52;20.55;;;;;;;;;;4970630;28;20077;-71
2022/04/03 03:38:46;;;;;;;29.25;20.88;;;;;;;;;;4956490;28;20030;-71
2022/04/03 03:41:14;;;;;;;28.15;19.95;;;;;;;;;;4974147;28;20085;-71
2022/04/03 03:43:40;;;;;;;36.72;19.90;;;;;;;;;;4970498;28;20035;-70
2022/04/03 03:46:08;;;;;;;36.00;24.05;;;;;;;;;;4957763;28;20070;-71
2022/04/03 03:48:35;;;;;;;35.13;22.00;;;;;;;;;;4979599;28;20038;-71
2022/04/03 03:51:01;;;;;;;37.75;23.08;;;;;;;;;;4975051;28;20035;-71
2022/04/03 03:53:27;;;;;;;28.15;21.50;;;;;;;;;;4970540;28;20086;-70
2022/04/03 03:55:52;;;;;;;33.63;22.77;;;;;;;;;;4971286;28;20445;-70
2022/04/03 03:58:18;;;;;;;36.67;25.40;;;;;;;;;;4979600;28;20061;-70
2022/04/03 04:00:44;;;;;;;34.22;20.70;;;;;;;;;;4952449;28;20078;-71
2022/04/03 04:03:10;;;;;;;32.92;21.80;;;;;;;;;;4959834;28;20572;-71
2022/04/03 04:05:35;;;;;;;29.38;20.00;;;;;;;;;;4978304;28;20065;-71
2022/04/03 04:08:01;;;;;;;30.98;19.25;;;;;;;;;;4970094;28;20034;-72
2022/04/03 04:10:27;;;;;;;33.15;20.83;;;;;;;;;;4973900;28;20619;-72
2022/04/03 04:12:53;;;;;;;31.08;20.83;;;;;;;;;;4958274;28;20084;-71
2022/04/03 04:15:18;;;;;;;32.75;22.00;;;;;;;;;;4967671;28;20538;-72
2022/04/03 04:17:46;;;;;;;28.70;19.33;;;;;;;;;;4968793;28;20609;-71
2022/04/03 04:20:16;;;;;;;26.70;18.73;;;;;;;;;;4983973;28;20041;-71
2022/04/03 04:22:43;;;;;;;32.25;21.55;;;;;;;;;;4975190;28;20042;-70
2022/04/03 04:25:13;;;;;;;33.03;21.02;;;;;;;;;;4971436;28;20039;-70
2022/04/03 04:27:40;;;;;;;34.50;20.92;;;;;;;;;;4969270;28;20550;-71
2022/04/03 04:30:06;;;;;;;33.75;19.90;;;;;;;;;;4962236;28;20042;-70
2022/04/03 04:32:32;;;;;;;28.98;19.30;;;;;;;;;;4970669;28;20116;-70
2022/04/03 04:34:58;;;;;;;27.83;20.80;;;;;;;;;;4977962;28;20102;-71
2022/04/03 04:37:24;;;;;;;29.15;21.10;;;;;;;;;;4977841;28;20581;-71
2022/04/03 04:39:50;;;;;;;30.98;20.02;;;;;;;;;;4980227;28;20034;-72
2022/04/03 04:42:15;;;;;;;28.13;20.75;;;;;;;;;;4968628;28;20046;-70
2022/04/03 04:44:42;;;;;;;29.00;20.33;;;;;;;;;;4936667;28;20230;-71
2022/04/03 04:47:08;;;;;;;31.02;20.15;;;;;;;;;;4975170;28;20045;-71
2022/04/03 04:49:34;;;;;;;31.95;21.08;;;;;;;;;;4960444;28;20046;-71
2022/04/03 04:51:59;;;;;;;33.80;21.65;;;;;;;;;;4969429;28;20045;-71
2022/04/03 04:54:26;;;;;;;30.60;18.95;;;;;;;;;;4966871;28;20513;-71
2022/04/03 04:56:55;;;;;;;28.27;20.00;;;;;;;;;;4959383;28;20050;-71
2022/04/03 04:59:20;;;;;;;31.65;20.38;;;;;;;;;;4973829;28;20042;-70
2022/04/03 05:01:46;;;;;;;27.02;19.27;;;;;;;;;;4969220;28;20334;-71
2022/04/03 05:04:12;;;;;;;29.85;21.15;;;;;;;;;;4973896;28;20030;-71
2022/04/03 05:06:39;;;;;;;32.88;21.40;;;;;;;;;;4978110;28;20089;-71
2022/04/03 05:09:05;;;;;;;29.17;20.20;;;;;;;;;;4969008;28;20122;-71
2022/04/03 05:11:31;;;;;;;25.63;18.55;;;;;;;;;;4972350;28;20117;-72
2022/04/03 05:13:58;;;;;;;30.30;20.50;;;;;;;;;;4981819;28;20045;-70
2022/04/03 05:16:24;;;;;;;30.88;20.17;;;;;;;;;;4962634;28;20124;-71
2022/04/03 05:18:51;;;;;;;33.80;23.92;;;;;;;;;;4968096;28;20038;-71
2022/04/03 05:21:17;;;;;;;28.75;21.02;;;;;;;;;;4982899;28;20030;-71
2022/04/03 05:23:42;;;;;;;33.05;23.15;;;;;;;;;;4958433;28;20031;-72
2022/04/03 05:26:10;;;;;;;32.25;22.15;;;;;;;;;;4950730;28;20039;-70
2022/04/03 05:28:36;;;;;;;31.88;22.17;;;;;;;;;;4974884;28;20046;-70
2022/04/03 05:31:02;;;;;;;27.70;18.08;;;;;;;;;;4973600;28;20065;-71
2022/04/03 05:33:28;;;;;;;33.08;21.27;;;;;;;;;;4942905;28;20038;-69
2022/04/03 05:35:53;;;;;;;27.95;21.08;;;;;;;;;;4968462;28;20050;-71
2022/04/03 05:38:19;;;;;;;25.75;18.60;;;;;;;;;;4974929;28;20744;-71
2022/04/03 05:40:44;;;;;;;31.05;19.40;;;;;;;;;;4972098;28;20050;-70
2022/04/03 05:43:10;;;;;;;24.88;18.98;;;;;;;;;;4970059;28;20034;-71
2022/04/03 05:45:37;;;;;;;26.50;19.95;;;;;;;;;;4971369;28;20251;-70
2022/04/03 05:48:07;;;;;;;28.65;19.95;;;;;;;;;;4977144;28;20418;-71
2022/04/03 05:50:33;;;;;;;27.85;18.42;;;;;;;;;;4968907;28;20026;-71
2022/04/03 05:52:59;;;;;;;29.33;21.48;;;;;;;;;;4954553;28;20049;-70
2022/04/03 05:55:25;;;;;;;30.63;20.55;;;;;;;;;;4967160;28;20038;-68
2022/04/03 05:57:52;;;;;;;27.67;18.75;;;;;;;;;;4950654;28;20069;-70
2022/04/03 06:00:20;;;;;;;29.67;18.80;;;;;;;;;;4968681;28;20035;-71
2022/04/03 06:02:46;;;;;;;26.70;18.90;;;;;;;;;;4967494;28;20057;-71
2022/04/03 06:05:12;;;;;;;26.48;18.75;;;;;;;;;;4942019;28;20097;-71
2022/04/03 06:07:38;;;;;;;29.02;20.08;;;;;;;;;;4972146;28;20446;-70
2022/04/03 06:10:04;;;;;;;27.10;18.38;;;;;;;;;;4967685;28;20034;-70
2022/04/03 06:12:29;;;;;;;24.13;18.23;;;;;;;;;;4978097;28;20138;-70
2022/04/03 06:14:55;;;;;;;23.63;17.20;;;;;;;;;;4967688;28;20105;-70
2022/04/03 06:17:21;;;;;;;24.48;17.60;;;;;;;;;;4956948;28;20137;-72
2022/04/03 06:19:48;;;;;;;23.67;17.95;;;;;;;;;;4974703;28;20073;-72
2022/04/03 06:22:14;;;;;;;22.05;16.92;;;;;;;;;;4972606;28;20038;-70
2022/04/03 06:24:39;;;;;;;22.38;16.75;;;;;;;;;;4969295;28;20127;-71
2022/04/03 06:27:05;;;;;;;20.65;16.63;;;;;;;;;;4956905;28;20457;-72
2022/04/03 06:29:31;;;;;;;20.75;16.33;;;;;;;;;;4979905;28;20042;-70
2022/04/03 06:31:56;;;;;;;21.73;18.05;;;;;;;;;;4971566;28;20038;-70
2022/04/03 06:34:22;;;;;;;21.88;16.70;;;;;;;;;;4972578;28;20389;-72
2022/04/03 06:36:47;;;;;;;19.73;15.95;;;;;;;;;;4978098;28;20073;-72
2022/04/03 06:39:13;;;;;;;16.48;14.38;;;;;;;;;;4970353;28;20094;-71
2022/04/03 06:41:39;;;;;;;17.50;14.63;;;;;;;;;;4971617;28;20065;-71
2022/04/03 06:44:05;;;;;;;19.63;15.60;;;;;;;;;;4961020;28;20121;-72
2022/04/03 06:46:30;;;;;;;17.17;15.38;;;;;;;;;;4978487;28;20035;-71
2022/04/03 06:48:57;;;;;;;17.85;14.82;;;;;;;;;;4973028;28;20142;-73
2022/04/03 06:51:22;;;;;;;15.27;13.65;;;;;;;;;;4959212;28;20038;-72
2022/04/03 06:53:48;;;;;;;17.05;14.75;;;;;;;;;;4958021;28;20106;-73
2022/04/03 06:56:14;;;;;;;19.52;14.68;;;;;;;;;;4971446;28;20035;-73
2022/04/03 06:58:39;;;;;;;15.55;13.85;;;;;;;;;;4973133;28;20026;-72
2022/04/03 07:01:05;;;;;;;15.60;14.07;;;;;;;;;;4960127;28;20042;-72
2022/04/03 07:03:32;;;;;;;17.58;14.20;;;;;;;;;;4981609;28;20033;-73
2022/04/03 07:05:59;;;;;;;19.23;16.13;;;;;;;;;;4972279;28;20051;-73
2022/04/03 07:08:25;;;;;;;17.35;15.07;;;;;;;;;;4960194;28;20051;-73
2022/04/03 07:10:50;;;;;;;15.13;13.63;;;;;;;;;;4961867;28;20062;-73
2022/04/03 07:13:16;;;;;;;18.52;15.02;;;;;;;;;;4954138;28;20387;-74
2022/04/03 07:15:43;;;;;;;16.63;14.50;;;;;;;;;;4971333;28;20061;-70
2022/04/03 07:18:08;;;;;;;16.05;14.52;;;;;;;;;;4976589;28;20056;-68
2022/04/03 07:20:34;;;;;;;17.20;15.50;;;;;;;;;;4977698;28;20457;-71
2022/04/03 07:23:00;;;;;;;18.45;16.38;;;;;;;;;;4970003;28;20045;-71
2022/04/03 07:25:26;;;;;;;19.38;17.52;;;;;;;;;;4969238;28;20045;-72
2022/04/03 07:27:52;;;;;;;17.48;15.80;;;;;;;;;;4969810;28;20500;-73
2022/04/03 07:30:17;;;;;;;16.85;15.35;;;;;;;;;;4967705;28;20082;-73
2022/04/03 07:32:43;;;;;;;15.60;14.20;;;;;;;;;;4983869;28;20073;-74
2022/04/03 07:35:10;;;;;;;17.23;15.65;;;;;;;;;;4962742;28;20042;-74
2022/04/03 07:37:36;;;;;;;16.80;15.50;;;;;;;;;;4975831;28;20031;-74
2022/04/03 07:40:08;;;;;;;16.52;15.23;;;;;;;;;;4950693;28;20047;-73
2022/04/03 07:42:34;;;;;;;16.45;15.05;;;;;;;;;;4966491;28;20042;-73
2022/04/03 07:45:00;;;;;;;17.45;16.05;;;;;;;;;;4970399;28;20039;-73
2022/04/03 07:47:25;;;;;;;17.40;15.77;;;;;;;;;;4954305;28;20073;-73
2022/04/03 07:49:51;;;;;;;19.55;18.05;;;;;;;;;;4965436;28;20441;-72
2022/04/03 07:52:16;;;;;;;19.20;16.23;;;;;;;;;;4969883;28;20378;-73
2022/04/03 07:54:42;;;;;;;17.83;16.23;;;;;;;;;;4968681;28;20057;-73
2022/04/03 07:57:10;;;;;;;17.90;16.38;;;;;;;;;;4970012;28;20045;-73
2022/04/03 07:59:36;;;;;;;17.63;16.00;;;;;;;;;;4979126;28;20034;-74
2022/04/03 08:02:02;;;;;;;17.40;15.80;;;;;;;;;;4951361;28;20572;-73
2022/04/03 08:04:29;;;;;;;19.15;17.15;;;;;;;;;;4968715;28;20031;-73
2022/04/03 08:06:54;;;;;;;16.67;15.38;;;;;;;;;;4971124;28;20045;-74
2022/04/03 08:09:21;;;;;;;15.38;14.23;;;;;;;;;;4976223;28;20042;-71
2022/04/03 08:11:47;;;;;;;16.23;14.82;;;;;;;;;;4933774;28;20103;-74
2022/04/03 08:14:12;;;;;;;15.50;14.10;;;;;;;;;;4950478;28;20601;-73
2022/04/03 08:16:38;;;;;;;17.38;16.08;;;;;;;;;;4969777;28;20508;-72
2022/04/03 08:19:04;;;;;;;16.55;15.20;;;;;;;;;;4975583;28;20165;-70
2022/04/03 08:21:30;;;;;;;14.88;12.77;;;;;;;;;;4967979;28;20517;-72
2022/04/03 08:23:56;;;;;;;14.20;13.00;;;;;;;;;;4952091;28;20043;-72
2022/04/03 08:26:26;;;;;;;15.30;13.68;;;;;;;;;;4972843;28;20097;-73
2022/04/03 08:28:55;;;;;;;14.90;13.70;;;;;;;;;;4971225;28;20070;-74
2022/04/03 08:31:23;;;;;;;15.52;14.38;;;;;;;;;;4967796;28;20065;-73
2022/04/03 08:33:49;;;;;;;18.35;16.70;;;;;;;;;;4972741;28;20524;-72
2022/04/03 08:36:15;;;;;;;18.73;17.13;;;;;;;;;;4972919;28;20077;-70
2022/04/03 08:38:41;;;;;;;15.82;14.52;;;;;;;;;;4968341;28;20070;-72
2022/04/03 08:41:07;;;;;;;15.00;13.60;;;;;;;;;;4964641;28;20354;-74
2022/04/03 08:43:32;;;;;;;18.27;16.77;;;;;;;;;;4978120;28;20097;-74
2022/04/03 08:45:58;;;;;;;22.13;20.27;;;;;;;;;;4954158;28;20508;-70
2022/04/03 08:48:28;;;;;;;14.45;13.15;;;;;;;;;;4950479;28;20038;-72
2022/04/03 08:50:56;;;;;;;14.20;12.90;;;;;;;;;;4950090;28;20059;-72
2022/04/03 08:53:24;;;;;;;14.00;12.57;;;;;;;;;;4975044;28;20038;-72
2022/04/03 08:55:50;;;;;;;13.82;12.45;;;;;;;;;;4967486;28;20045;-72
2022/04/03 08:58:17;;;;;;;14.88;13.32;;;;;;;;;;4950464;28;20125;-72
2022/04/03 09:00:42;;;;;;;13.13;12.02;;;;;;;;;;4953389;28;20142;-73
2022/04/03 09:03:08;;;;;;;14.02;12.90;;;;;;;;;;4958230;28;20460;-72
2022/04/03 09:05:35;;;;;;;13.63;12.50;;;;;;;;;;4965983;28;20170;-72
2022/04/03 09:08:01;;;;;;;14.07;12.57;;;;;;;;;;4966152;28;20038;-73
2022/04/03 09:10:28;;;;;;;13.02;11.82;;;;;;;;;;4968067;28;20400;-73
2022/04/03 09:12:53;;;;;;;13.10;12.10;;;;;;;;;;4977456;28;20039;-73
2022/04/03 09:15:21;;;;;;;14.18;12.95;;;;;;;;;;4967026;28;20050;-73
2022/04/03 09:17:57;;;;;;;14.48;12.98;;;;;;;;;;4966307;28;20045;-73
2022/04/03 09:20:30;;;;;;;13.90;12.80;;;;;;;;;;4979012;28;20060;-73
2022/04/03 09:23:01;;;;;;;14.02;12.98;;;;;;;;;;4935317;28;20082;-73
2022/04/03 09:25:29;;;;;;;13.93;12.82;;;;;;;;;;4964394;28;20864;-72
2022/04/03 09:28:00;;;;;;;13.50;12.40;;;;;;;;;;4975583;28;20389;-72
2022/04/03 09:30:31;;;;;;;12.63;11.52;;;;;;;;;;4976225;28;20105;-71
2022/04/03 09:32:59;;;;;;;13.70;12.50;;;;;;;;;;4964302;28;20512;-71
2022/04/03 09:35:30;;;;;;;13.57;12.38;;;;;;;;;;4973655;28;20197;-71
2022/04/03 09:38:10;;;;;;;13.40;12.40;;;;;;;;;;4944184;28;20102;-71
2022/04/03 09:40:44;;;;;;;14.95;13.70;;;;;;;;;;4952726;28;20046;-71
2022/04/03 09:43:25;;;;;;;11.73;10.82;;;;;;;;;;4945350;28;20101;-71
2022/04/03 09:45:54;;;;;;;12.55;11.60;;;;;;;;;;4975622;28;20126;-70
2022/04/03 09:48:31;;;;;;;12.43;11.38;;;;;;;;;;4966564;28;20057;-70
2022/04/03 09:51:04;;;;;;;12.48;11.57;;;;;;;;;;4966156;28;20155;-70
2022/04/03 09:53:48;;;;;;;12.93;11.93;;;;;;;;;;4972732;28;20121;-70
2022/04/03 09:56:23;;;;;;;13.07;11.98;;;;;;;;;;4966178;28;20122;-70
2022/04/03 09:58:52;;;;;;;13.63;12.40;;;;;;;;;;4970554;28;20053;-70
2022/04/03 10:01:26;;;;;;;13.98;12.68;;;;;;;;;;4969443;28;20039;-70
2022/04/03 10:03:53;;;;;;;13.88;12.10;;;;;;;;;;4982044;28;20034;-69
2022/04/03 10:06:19;;;;;;;11.32;10.40;;;;;;;;;;4970203;28;20039;-70
2022/04/03 10:08:48;;;;;;;19.77;16.05;;;;;;;;;;4970695;28;20034;-70
2022/04/03 10:11:15;;;;;;;13.10;11.95;;;;;;;;;;4975928;28;20047;-69
2022/04/03 10:13:42;;;;;;;14.32;13.05;;;;;;;;;;4977578;28;20047;-70
2022/04/03 10:16:10;;;;;;;15.23;13.75;;;;;;;;;;4969839;28;20591;-70
2022/04/03 10:18:36;;;;;;;13.00;11.82;;;;;;;;;;4959406;28;20768;-70
2022/04/03 10:21:03;;;;;;;12.05;11.05;;;;;;;;;;4977392;28;20437;-70
2022/04/03 10:23:31;;;;;;;13.05;11.88;;;;;;;;;;4978524;28;20125;-70
2022/04/03 10:25:57;;;;;;;12.05;11.15;;;;;;;;;;4951325;28;20042;-70
2022/04/03 10:28:23;;;;;;;13.07;11.95;;;;;;;;;;4970772;28;20038;-70
2022/04/03 10:31:07;;;;;;;12.45;11.32;;;;;;;;;;4960061;28;20045;-70
2022/04/03 10:33:40;;;;;;;12.15;11.15;;;;;;;;;;4973378;28;20043;-71
2022/04/03 10:36:12;;;;;;;12.35;11.35;;;;;;;;;;4969318;28;20522;-71
2022/04/03 10:38:45;;;;;;;11.55;10.45;;;;;;;;;;4970043;28;20045;-71
2022/04/03 10:41:32;;;;;;;11.68;10.68;;;;;;;;;;4979317;28;20046;-71
2022/04/03 10:44:13;;;;;;;11.35;10.40;;;;;;;;;;4952658;28;20039;-71
2022/04/03 10:47:03;;;;;;;10.57;9.77;;;;;;;;;;4969390;28;20468;-71
2022/04/03 10:49:48;;;;;;;15.10;13.65;;;;;;;;;;4973153;28;20119;-71
2022/04/03 10:52:17;;;;;;;11.88;11.07;;;;;;;;;;4973457;28;20042;-71
2022/04/03 10:54:54;;;;;;;12.93;11.00;;;;;;;;;;4951934;28;20042;-71
2022/04/03 10:57:42;;;;;;;12.88;11.68;;;;;;;;;;4968828;28;20088;-71
2022/04/03 11:00:14;;;;;;;12.15;11.25;;;;;;;;;;4971706;28;20042;-71
2022/04/03 11:02:49;;;;;;;14.65;13.55;;;;;;;;;;4952288;28;20031;-71
2022/04/03 11:05:26;;;;;;;11.35;10.55;;;;;;;;;;4967392;28;20038;-71
2022/04/03 11:08:02;;;;;;;12.32;11.32;;;;;;;;;;4959855;28;20122;-71
2022/04/03 11:10:50;;;;;;;12.77;11.88;;;;;;;;;;4969866;28;20540;-71
2022/04/03 11:13:31;;;;;;;13.02;12.02;;;;;;;;;;4968977;28;20038;-71
2022/04/03 11:15:59;;;;;;;13.43;12.18;;;;;;;;;;4964053;28;20104;-71
2022/04/03 11:18:24;;;;;;;12.63;11.63;;;;;;;;;;4976553;28;20138;-71
2022/04/03 11:21:18;;;;;;;12.20;11.30;;;;;;;;;;4969392;28;20470;-71
2022/04/03 11:24:06;;;;;;;12.73;11.73;;;;;;;;;;4968195;28;20114;-71
2022/04/03 11:26:34;;;;;;;12.20;11.20;;;;;;;;;;4973263;28;20125;-70
2022/04/03 11:29:00;;;;;;;12.93;11.82;;;;;;;;;;4951612;28;20039;-71
2022/04/03 11:31:27;;;;;;;15.63;14.25;;;;;;;;;;4967495;28;20130;-72
2022/04/03 11:33:53;;;;;;;12.55;11.27;;;;;;;;;;4962813;28;20038;-71
2022/04/03 11:36:24;;;;;;;13.02;11.95;;;;;;;;;;4969031;28;20418;-71
2022/04/03 11:38:51;;;;;;;13.48;12.23;;;;;;;;;;4954758;28;20089;-71
2022/04/03 11:41:22;;;;;;;15.05;13.50;;;;;;;;;;4973729;28;20030;-71
2022/04/03 11:44:02;;;;;;;13.90;12.80;;;;;;;;;;4975974;28;20038;-71
2022/04/03 11:46:31;;;;;;;146.00;52.58;;;;;;;;;;4968697;28;20637;-72
2022/04/03 11:48:57;;;;;;;;;;;;;;;;;;4972208;28;20627;-72
2022/04/03 11:51:26;;;;;;;14.07;13.00;;;;;;;;;;4974351;28;20814;-72
2022/04/03 11:54:01;;;;;;;13.52;12.60;;;;;;;;;;4967246;28;20142;-71
2022/04/03 11:56:31;;;;;;;13.73;12.63;;;;;;;;;;4933146;28;20047;-72
2022/04/03 11:58:57;;;;;;;12.63;11.82;;;;;;;;;;4978776;28;20039;-73
2022/04/03 12:01:25;;;;;;;11.98;11.18;;;;;;;;;;4969633;28;20030;-72
2022/04/03 12:04:02;;;;;;;13.05;12.15;;;;;;;;;;4968466;28;20696;-73
2022/04/03 12:06:32;;;;;;;12.25;11.35;;;;;;;;;;4973479;28;20045;-72
2022/04/03 12:08:58;;;;;;;14.80;13.55;;;;;;;;;;4961703;28;20042;-73
2022/04/03 12:11:29;;;;;;;12.60;11.70;;;;;;;;;;4968485;28;20418;-72
2022/04/03 12:13:58;;;;;;;13.02;12.10;;;;;;;;;;4968298;28;20557;-71
2022/04/03 12:16:31;;;;;;;11.52;10.73;;;;;;;;;;4973978;28;20109;-73
2022/04/03 12:19:02;;;;;;;11.73;10.80;;;;;;;;;;4972668;28;20121;-71
2022/04/03 12:22:00;;;;;;;12.20;11.23;;;;;;;;;;4947114;28;20046;-71
2022/04/03 12:24:33;;;;;;;12.07;11.18;;;;;;;;;;4933909;28;20043;-69
2022/04/03 12:27:05;;;;;;;12.05;11.10;;;;;;;;;;4973368;28;20038;-71
2022/04/03 12:29:32;;;;;;;12.82;11.48;;;;;;;;;;4969061;28;20054;-70
2022/04/03 12:32:00;;;;;;;12.10;11.20;;;;;;;;;;4968305;28;20538;-70
2022/04/03 12:34:28;;;;;;;12.10;11.20;;;;;;;;;;4967013;28;20030;-70
2022/04/03 12:36:55;;;;;;;12.80;11.60;;;;;;;;;;4976569;28;20138;-69
2022/04/03 12:39:45;;;;;;;11.90;10.98;;;;;;;;;;4957568;28;20046;-71
2022/04/03 12:42:17;;;;;;;12.15;11.18;;;;;;;;;;4962902;28;20049;-71
2022/04/03 12:44:49;;;;;;;13.55;12.23;;;;;;;;;;4967943;28;20687;-70
2022/04/03 12:47:16;;;;;;;12.63;11.65;;;;;;;;;;4965980;28;20039;-70
2022/04/03 12:50:05;;;;;;;12.13;11.15;;;;;;;;;;4966253;28;20121;-70
2022/04/03 12:52:49;;;;;;;12.48;11.48;;;;;;;;;;4955211;28;20677;-69
2022/04/03 12:55:20;;;;;;;14.20;13.05;;;;;;;;;;4966196;28;20031;-69
2022/04/03 12:58:25;;;;;;;10.35;9.75;;;;;;;;;;4934109;28;20521;-69
2022/04/03 13:01:11;;;;;;;12.30;11.30;;;;;;;;;;4963101;28;20418;-70
2022/04/03 13:03:39;;;;;;;11.63;10.65;;;;;;;;;;4963684;28;20027;-70
2022/04/03 13:06:09;;;;;;;11.53;10.53;;;;;;;;;;4974969;28;20654;-69
2022/04/03 13:08:52;;;;;;;11.65;10.57;;;;;;;;;;4967063;28;20302;-68
2022/04/03 13:11:47;;;;;;;11.45;10.70;;;;;;;;;;4963816;28;20050;-67
2022/04/03 13:14:17;;;;;;;11.20;10.45;;;;;;;;;;4970468;28;20038;-68
2022/04/03 13:16:48;;;;;;;11.50;10.70;;;;;;;;;;4967180;28;20148;-68
2022/04/03 13:19:15;;;;;;;15.52;14.32;;;;;;;;;;4966143;28;20039;-70
2022/04/03 13:21:42;;;;;;;11.02;10.25;;;;;;;;;;4958055;28;20073;-67
2022/04/03 13:24:09;;;;;;;11.85;10.70;;;;;;;;;;4951074;28;20427;-68
2022/04/03 13:26:35;;;;;;;12.48;11.50;;;;;;;;;;4966019;28;20033;-68
2022/04/03 13:29:01;;;;;;;11.50;10.52;;;;;;;;;;4969354;28;20042;-68
2022/04/03 13:31:27;;;;;;;12.30;11.40;;;;;;;;;;4978955;28;20030;-68
2022/04/03 13:33:53;;;;;;;11.88;10.88;;;;;;;;;;4966760;28;20039;-68
2022/04/03 13:36:19;;;;;;;10.75;9.82;;;;;;;;;;4967076;28;20041;-68
2022/04/03 13:38:44;;;;;;;11.60;10.60;;;;;;;;;;4967567;28;20569;-68
2022/04/03 13:41:13;;;;;;;11.57;10.63;;;;;;;;;;4977103;28;20030;-68
2022/04/03 13:43:42;;;;;;;11.30;10.40;;;;;;;;;;4949981;28;20081;-68
2022/04/03 13:46:07;;;;;;;12.30;11.13;;;;;;;;;;4966141;28;20035;-67
2022/04/03 13:48:38;;;;;;;16.83;11.07;;;;;;;;;;4967910;28;20049;-68
2022/04/03 13:51:07;;;;;;;12.05;11.10;;;;;;;;;;4974151;28;20077;-67
2022/04/03 13:53:33;;;;;;;11.13;10.23;;;;;;;;;;4959554;28;20035;-67
2022/04/03 13:56:00;;;;;;;11.55;10.60;;;;;;;;;;4965237;28;20043;-68
2022/04/03 13:58:26;;;;;;;11.50;10.50;;;;;;;;;;4973186;28;20039;-68
2022/04/03 14:01:04;;;;;;;10.98;10.20;;;;;;;;;;4971059;28;20093;-68
2022/04/03 14:03:33;;;;;;;11.00;10.20;;;;;;;;;;4965648;28;20154;-70
2022/04/03 14:06:00;;;;;;;11.13;10.15;;;;;;;;;;4973363;28;20038;-69
2022/04/03 14:08:26;;;;;;;11.50;10.60;;;;;;;;;;4973544;28;20070;-67
2022/04/03 14:10:54;;;;;;;10.90;10.05;;;;;;;;;;4966715;28;20473;-69
2022/04/03 14:13:27;;;;;;;10.40;9.70;;;;;;;;;;4966321;28;20120;-67
2022/04/03 14:16:04;;;;;;;10.45;9.60;;;;;;;;;;4943728;28;20721;-67
2022/04/03 14:18:30;;;;;;;10.88;9.95;;;;;;;;;;4962589;28;20046;-67
2022/04/03 14:20:58;;;;;;;10.82;9.98;;;;;;;;;;4966457;28;20146;-67
2022/04/03 14:23:26;;;;;;;10.77;9.80;;;;;;;;;;4959285;28;20034;-67
2022/04/03 14:25:52;;;;;;;10.63;9.57;;;;;;;;;;4948661;28;20151;-67